Time;durP1;ratioP1;P1;durP2;ratioP2;P2;SDS_P1;SDS_P2;PMS_P1;PMS_P2;Temp;Humidity;BMP_temperature;BMP_pressure;BME280_temperature;BME280_humidity;BME280_pressure;Samples;Min_cycle;Max_cycle;Signal;HPM_P1;HPM_P2
2022/06/22 00:00:36;;;;;;;1999.90;999.90;;;18.00;99.90;;;;;;5055449;28;20046;-84
2022/06/22 00:03:05;;;;;;;1999.90;999.90;;;17.90;99.90;;;;;;5037569;28;20115;-83
2022/06/22 00:05:49;;;;;;;1999.90;999.90;;;17.90;99.90;;;;;;5050259;28;20527;-83
2022/06/22 00:08:37;;;;;;;1999.90;999.90;;;17.90;99.90;;;;;;5048413;28;20040;-89
2022/06/22 00:11:15;;;;;;;1999.90;999.90;;;17.90;99.90;;;;;;5063401;28;20159;-83
2022/06/22 00:13:57;;;;;;;1999.90;999.90;;;17.80;99.90;;;;;;5054029;28;20037;-83
2022/06/22 00:16:24;;;;;;;1999.90;999.90;;;17.80;99.90;;;;;;5043921;28;20198;-84
2022/06/22 00:18:51;;;;;;;1999.90;999.90;;;17.90;99.90;;;;;;5036596;28;20063;-83
2022/06/22 00:21:33;;;;;;;1999.90;999.90;;;17.90;99.90;;;;;;5051672;28;20443;-83
2022/06/22 00:24:20;;;;;;;1999.90;999.90;;;17.80;99.90;;;;;;5053487;28;20029;-83
2022/06/22 00:26:48;;;;;;;1999.90;999.90;;;17.70;99.90;;;;;;5052026;28;20029;-83
2022/06/22 00:29:14;;;;;;;1999.90;999.90;;;17.80;99.90;;;;;;5051935;28;20025;-83
2022/06/22 00:31:43;;;;;;;1999.90;999.90;;;17.80;99.90;;;;;;5051295;28;20051;-83
2022/06/22 00:34:09;;;;;;;1999.90;999.90;;;17.80;99.90;;;;;;5046369;28;20095;-83
2022/06/22 00:36:38;;;;;;;1999.90;999.90;;;17.70;99.90;;;;;;5052112;28;20041;-83
2022/06/22 00:39:17;;;;;;;1999.90;999.90;;;17.60;99.90;;;;;;5048405;28;20031;-84
2022/06/22 00:42:14;;;;;;;1999.90;999.90;;;17.60;99.90;;;;;;5048784;28;20043;-83
2022/06/22 00:44:50;;;;;;;1999.90;999.90;;;17.60;99.90;;;;;;5057103;28;20044;-84
2022/06/22 00:47:41;;;;;;;1999.90;999.90;;;17.50;99.90;;;;;;5059766;28;20039;-83
2022/06/22 00:50:12;;;;;;;1999.90;999.90;;;17.50;99.90;;;;;;5057920;28;20088;-84
2022/06/22 00:53:05;;;;;;;1999.90;999.90;;;17.50;99.90;;;;;;5056065;28;20017;-83
2022/06/22 00:55:48;;;;;;;1999.90;999.90;;;17.60;99.90;;;;;;5051756;28;20048;-84
2022/06/22 00:58:24;;;;;;;1999.90;999.90;;;17.60;99.90;;;;;;5054939;28;20021;-83
2022/06/22 01:01:13;;;;;;;1999.90;999.90;;;17.50;99.90;;;;;;5049445;28;20400;-83
2022/06/22 01:03:46;;;;;;;1999.90;999.90;;;17.50;99.90;;;;;;5051845;28;20063;-83
2022/06/22 01:06:24;;;;;;;1999.90;999.90;;;17.60;99.90;;;;;;5055180;28;20040;-83
2022/06/22 01:08:53;;;;;;;1999.90;999.90;;;17.60;99.90;;;;;;5051286;28;20071;-84
2022/06/22 01:14:51;;;;;;;1999.90;999.90;;;17.60;99.90;;;;;;5064119;28;20151;-86
2022/06/22 01:17:25;;;;;;;1999.90;999.90;;;17.60;99.90;;;;;;5062875;28;20032;-84
2022/06/22 01:20:03;;;;;;;1999.90;999.90;;;17.50;99.90;;;;;;5072399;28;20037;-84
2022/06/22 01:22:34;;;;;;;1999.90;999.90;;;17.50;99.90;;;;;;5056628;28;20129;-84
2022/06/22 01:25:19;;;;;;;1999.90;999.90;;;17.50;99.90;;;;;;5062326;28;20032;-83
2022/06/22 01:27:45;;;;;;;1999.90;999.90;;;17.40;99.90;;;;;;5051878;28;20025;-84
2022/06/22 01:30:37;;;;;;;1999.90;999.90;;;17.30;99.90;;;;;;5058212;28;20566;-84
2022/06/22 01:33:13;;;;;;;1999.90;999.90;;;17.30;99.90;;;;;;5049547;28;20047;-86
2022/06/22 01:35:39;;;;;;;1999.90;999.90;;;17.30;99.90;;;;;;5054800;28;20029;-83
2022/06/22 01:38:23;;;;;;;1999.90;999.90;;;17.30;99.90;;;;;;5056209;28;20029;-83
2022/06/22 01:40:59;;;;;;;1999.90;999.90;;;17.20;99.90;;;;;;5049720;28;20048;-87
2022/06/22 01:43:53;;;;;;;1999.90;999.90;;;17.30;99.90;;;;;;5062505;28;20040;-84
2022/06/22 01:46:24;;;;;;;1999.90;999.90;;;17.20;99.90;;;;;;5059954;28;20043;-84
2022/06/22 01:48:57;;;;;;;1999.90;999.90;;;17.20;99.90;;;;;;5062215;28;20496;-84
2022/06/22 01:51:31;;;;;;;1999.90;999.90;;;17.10;99.90;;;;;;5054550;28;20029;-83
2022/06/22 01:54:08;;;;;;;1999.90;999.90;;;17.10;99.90;;;;;;5059589;28;20029;-83
2022/06/22 01:56:43;;;;;;;1999.90;999.90;;;17.10;99.90;;;;;;5052810;28;20116;-83
2022/06/22 01:59:31;;;;;;;1999.90;999.90;;;16.90;99.90;;;;;;5055777;28;20044;-84
2022/06/22 02:02:18;;;;;;;1999.90;999.90;;;17.00;99.90;;;;;;5052941;28;20103;-83
2022/06/22 02:04:59;;;;;;;1999.90;999.90;;;17.10;99.90;;;;;;5055250;28;20569;-83
2022/06/22 02:07:46;;;;;;;1999.90;999.90;;;17.10;99.90;;;;;;5051557;28;20037;-83
2022/06/22 02:10:34;;;;;;;1999.90;999.90;;;17.10;99.90;;;;;;5049924;28;20123;-84
2022/06/22 02:13:39;;;;;;;1999.90;999.90;;;17.00;99.90;;;;;;5064796;28;20060;-83
2022/06/22 02:16:33;;;;;;;1999.90;999.90;;;17.00;99.90;;;;;;5058459;28;20025;-87
2022/06/22 02:18:58;;;;;;;1999.90;999.90;;;17.00;99.90;;;;;;5060315;28;20036;-83
2022/06/22 02:21:25;;;;;;;1999.90;999.90;;;17.00;99.90;;;;;;5065160;28;20035;-84
2022/06/22 02:24:13;;;;;;;1999.90;999.90;;;17.10;99.90;;;;;;5054044;28;20128;-84
2022/06/22 02:26:42;;;;;;;1999.90;999.90;;;17.10;99.90;;;;;;5049239;28;20039;-84
2022/06/22 02:29:08;;;;;;;1999.90;999.90;;;17.10;99.90;;;;;;5057680;28;20028;-84
2022/06/22 02:31:35;;;;;;;1999.90;999.90;;;17.00;99.90;;;;;;5048684;28;20029;-84
2022/06/22 02:34:02;;;;;;;1999.90;999.90;;;16.90;99.90;;;;;;5056184;28;20036;-84
2022/06/22 02:36:31;;;;;;;1999.90;999.90;;;16.80;99.90;;;;;;5052315;28;20156;-84
2022/06/22 02:39:01;;;;;;;1999.90;999.90;;;16.90;99.90;;;;;;5033144;28;20029;-83
2022/06/22 02:44:29;;;;;;;1999.90;999.90;;;16.90;99.90;;;;;;5061273;28;20110;-83
2022/06/22 02:46:57;;;;;;;1999.90;999.90;;;16.70;99.90;;;;;;5053691;28;20034;-85
2022/06/22 02:49:32;;;;;;;1999.90;999.90;;;17.00;99.90;;;;;;5058941;28;20025;-83
2022/06/22 02:51:59;;;;;;;1999.90;999.90;;;16.80;99.90;;;;;;5058970;28;20574;-84
2022/06/22 02:55:01;;;;;;;1999.90;999.90;;;16.90;99.90;;;;;;5069351;28;20073;-84
2022/06/22 02:57:44;;;;;;;1999.90;999.90;;;16.80;99.90;;;;;;5029965;28;20024;-83
2022/06/22 03:00:11;;;;;;;1999.90;999.90;;;16.80;99.90;;;;;;5052276;28;20037;-84
2022/06/22 03:02:37;;;;;;;1999.90;999.90;;;16.80;99.90;;;;;;5052544;28;20036;-84
2022/06/22 03:05:05;;;;;;;1999.90;999.90;;;16.80;99.90;;;;;;5049487;28;20052;-84
2022/06/22 03:07:34;;;;;;;1999.90;999.90;;;16.70;99.90;;;;;;5068571;28;20086;-80
2022/06/22 03:10:02;;;;;;;1999.90;999.90;;;16.80;99.90;;;;;;5051873;28;20041;-83
2022/06/22 03:12:28;;;;;;;1999.90;999.90;;;16.80;99.90;;;;;;5035683;28;20028;-84
2022/06/22 03:15:00;;;;;;;1999.90;999.90;;;16.70;99.90;;;;;;5057554;28;20032;-84
2022/06/22 03:17:38;;;;;;;1999.90;999.90;;;16.70;99.90;;;;;;5038819;28;20461;-84
2022/06/22 03:20:13;;;;;;;1999.90;999.90;;;16.60;99.90;;;;;;5043273;28;20182;-87
2022/06/22 03:22:46;;;;;;;1999.90;999.90;;;16.70;99.90;;;;;;5054447;28;20048;-83
2022/06/22 03:25:35;;;;;;;1999.90;999.90;;;16.70;99.90;;;;;;5054141;28;20033;-83
2022/06/22 03:28:26;;;;;;;1999.90;999.90;;;16.50;99.90;;;;;;5054303;28;20029;-84
2022/06/22 03:31:00;;;;;;;1999.90;999.90;;;16.60;99.90;;;;;;5038640;28;20037;-83
2022/06/22 03:33:36;;;;;;;1999.90;999.90;;;16.70;99.90;;;;;;5048926;28;20037;-84
2022/06/22 03:36:11;;;;;;;1999.90;999.90;;;16.70;99.90;;;;;;5065755;28;20028;-83
2022/06/22 03:38:41;;;;;;;1999.90;999.90;;;16.70;99.90;;;;;;5049304;28;20051;-83
2022/06/22 03:41:15;;;;;;;;;;;16.80;99.90;;;;;;5047635;28;20037;-84
2022/06/22 03:43:59;;;;;;;1999.90;999.90;;;16.90;99.90;;;;;;5055911;28;19935;-83
2022/06/22 03:46:40;;;;;;;1999.90;999.90;;;16.90;99.90;;;;;;5050299;28;20435;-84
2022/06/22 03:49:23;;;;;;;1999.90;999.90;;;16.90;99.90;;;;;;5057112;28;20028;-82
2022/06/22 03:52:16;;;;;;;1999.90;999.90;;;16.80;99.90;;;;;;5056348;28;20028;-82
2022/06/22 03:54:46;;;;;;;1999.90;999.90;;;17.00;99.90;;;;;;5053269;28;20093;-83
2022/06/22 03:57:16;;;;;;;1999.90;999.90;;;17.00;99.90;;;;;;5053605;28;20036;-82
2022/06/22 03:59:45;;;;;;;1999.90;999.90;;;17.20;99.90;;;;;;5048364;28;20051;-83
2022/06/22 04:02:12;;;;;;;1999.90;999.90;;;17.00;99.90;;;;;;5047897;28;20041;-83
2022/06/22 04:04:38;;;;;;;1999.90;999.90;;;17.10;99.90;;;;;;5050764;28;20151;-82
2022/06/22 04:07:03;;;;;;;1999.90;999.90;;;17.20;99.90;;;;;;5049314;28;20128;-82
2022/06/22 04:09:30;;;;;;;1999.90;999.90;;;17.20;99.90;;;;;;5047670;28;20045;-83
2022/06/22 04:12:02;;;;;;;1999.90;999.90;;;17.40;99.90;;;;;;5055505;28;20051;-83
2022/06/22 04:14:43;;;;;;;1999.90;999.90;;;17.40;99.90;;;;;;5068798;28;20035;-81
2022/06/22 04:17:16;;;;;;;1999.90;999.90;;;17.40;99.90;;;;;;5060677;28;20400;-82
2022/06/22 04:19:48;;;;;;;1999.90;999.90;;;17.40;99.90;;;;;;5056845;28;20025;-82
2022/06/22 04:22:23;;;;;;;1999.90;999.90;;;17.40;99.90;;;;;;5052072;28;20017;-83
2022/06/22 04:25:02;;;;;;;1999.90;999.90;;;17.40;99.90;;;;;;5052149;28;20021;-81
2022/06/22 04:27:33;;;;;;;1999.90;999.90;;;17.40;99.90;;;;;;5054551;28;20029;-83
2022/06/22 04:30:14;;;;;;;1999.90;999.90;;;17.50;99.90;;;;;;5038505;28;20062;-82
2022/06/22 04:32:43;;;;;;;;;;;17.40;99.90;;;;;;5047380;28;20496;-82
2022/06/22 04:35:27;;;;;;;1999.90;999.90;;;17.40;99.90;;;;;;5047200;28;19912;-82
2022/06/22 04:37:58;;;;;;;1999.90;999.90;;;17.50;99.90;;;;;;5051024;28;20029;-81
2022/06/22 04:40:27;;;;;;;1999.90;999.90;;;17.50;99.90;;;;;;5062423;28;20056;-79
2022/06/22 04:42:57;;;;;;;1999.90;999.90;;;17.50;99.90;;;;;;5066941;28;20079;-82
2022/06/22 04:45:37;;;;;;;1999.90;999.90;;;17.50;99.90;;;;;;5045505;28;20052;-81
2022/06/22 04:48:08;;;;;;;1999.90;999.90;;;17.50;99.90;;;;;;5048520;28;20128;-79
2022/06/22 04:50:37;;;;;;;1999.90;999.90;;;17.50;99.90;;;;;;5058623;28;20463;-81
2022/06/22 04:53:04;;;;;;;1999.90;999.90;;;17.60;99.90;;;;;;5053844;28;20067;-81
2022/06/22 04:55:33;;;;;;;1999.90;999.90;;;17.70;99.90;;;;;;5052088;28;20104;-80
2022/06/22 04:58:03;;;;;;;1999.90;999.90;;;17.70;99.90;;;;;;5036155;28;20044;-81
2022/06/22 05:00:34;;;;;;;1999.90;999.90;;;17.70;99.90;;;;;;5053468;28;20036;-80
2022/06/22 05:03:12;;;;;;;;;;;17.80;99.90;;;;;;5053607;28;20033;-80
2022/06/22 05:05:38;;;;;;;1999.90;999.90;;;17.80;99.90;;;;;;5053414;28;19908;-81
2022/06/22 05:08:10;;;;;;;1999.90;999.90;;;17.90;99.90;;;;;;5052399;28;20025;-85
2022/06/22 05:10:51;;;;;;;1999.90;999.90;;;17.90;99.90;;;;;;5064596;28;20033;-88
2022/06/22 05:13:26;;;;;;;1999.90;999.90;;;17.90;99.90;;;;;;5064190;28;20029;-87
2022/06/22 05:15:55;;;;;;;1999.90;999.90;;;17.90;99.90;;;;;;5063692;28;20040;-88
2022/06/22 05:18:30;;;;;;;1999.90;999.90;;;17.90;99.90;;;;;;5063186;28;20039;-88
2022/06/22 05:21:19;;;;;;;1999.90;999.90;;;17.90;99.90;;;;;;5062490;28;20048;-87
2022/06/22 05:23:51;;;;;;;1999.90;999.90;;;17.90;99.90;;;;;;5058889;28;20025;-87
2022/06/22 05:26:21;;;;;;;1999.90;999.90;;;17.90;99.90;;;;;;5057211;28;20060;-86
2022/06/22 05:29:07;;;;;;;1999.90;999.90;;;18.00;99.90;;;;;;5066490;28;20040;-86
2022/06/22 05:31:41;;;;;;;1999.90;999.90;;;18.10;99.90;;;;;;5063830;28;20038;-88
2022/06/22 05:34:13;;;;;;;1999.90;999.90;;;18.10;99.90;;;;;;5063623;28;20036;-89
2022/06/22 05:36:43;;;;;;;1999.90;999.90;;;18.20;99.90;;;;;;5059454;28;20029;-87
2022/06/22 05:39:11;;;;;;;1999.90;999.90;;;18.30;99.90;;;;;;5057902;28;20044;-88
2022/06/22 05:41:40;;;;;;;1999.90;999.90;;;18.20;99.90;;;;;;5069799;28;20021;-88
2022/06/22 05:44:11;;;;;;;1999.90;999.90;;;18.30;99.90;;;;;;5078858;28;20092;-87
2022/06/22 05:46:39;;;;;;;1999.90;999.90;;;18.20;99.90;;;;;;5068258;28;20025;-88
2022/06/22 05:49:10;;;;;;;1999.90;999.90;;;18.40;99.90;;;;;;5065956;28;20123;-88
2022/06/22 05:51:45;;;;;;;1999.90;999.90;;;18.30;99.90;;;;;;5058959;28;20530;-91
2022/06/22 05:54:23;;;;;;;1999.90;999.90;;;18.30;99.90;;;;;;5057866;28;20033;-80
2022/06/22 05:57:05;;;;;;;1999.90;999.90;;;18.30;99.90;;;;;;5047224;28;20641;-80
2022/06/22 05:59:40;;;;;;;1999.90;999.90;;;18.40;99.90;;;;;;5053293;28;20041;-80
2022/06/22 06:02:27;;;;;;;1999.90;999.90;;;18.40;99.90;;;;;;5052120;28;20539;-80
2022/06/22 06:05:15;;;;;;;1999.90;999.90;;;18.50;99.90;;;;;;5051890;28;20021;-80
2022/06/22 06:07:47;;;;;;;1999.90;999.90;;;18.50;99.90;;;;;;5046791;28;20048;-81
2022/06/22 06:10:26;;;;;;;1999.90;999.90;;;18.60;99.90;;;;;;5054326;28;20044;-81
2022/06/22 06:13:07;;;;;;;1999.90;999.90;;;18.50;99.90;;;;;;5065055;28;20036;-81
2022/06/22 06:15:36;;;;;;;1999.90;999.90;;;18.40;99.90;;;;;;5064162;28;20258;-81
2022/06/22 06:18:03;;;;;;;1999.90;999.90;;;18.40;99.90;;;;;;5062438;28;20044;-80
2022/06/22 06:20:34;;;;;;;1999.90;999.90;;;18.20;99.90;;;;;;5057667;28;20055;-79
2022/06/22 06:23:18;;;;;;;1999.90;999.90;;;18.30;99.90;;;;;;5051461;28;20029;-81
2022/06/22 06:28:49;;;;;;;1999.90;999.90;;;18.40;99.90;;;;;;5050394;28;20048;-81
2022/06/22 06:31:24;;;;;;;1999.90;999.90;;;18.50;99.90;;;;;;5051331;28;20060;-81
2022/06/22 06:33:50;;;;;;;1999.90;999.90;;;18.50;99.90;;;;;;5050836;28;20480;-80
2022/06/22 06:36:39;;;;;;;1999.90;999.90;;;18.50;99.90;;;;;;5047435;28;20045;-81
2022/06/22 06:39:20;;;;;;;1999.90;999.90;;;18.50;99.90;;;;;;5050274;28;20036;-81
2022/06/22 06:42:03;;;;;;;1999.90;999.90;;;18.60;99.90;;;;;;5057840;28;20040;-81
2022/06/22 06:44:37;;;;;;;1999.90;999.90;;;18.60;99.90;;;;;;5061846;28;20076;-80
2022/06/22 06:47:06;;;;;;;1999.90;999.90;;;18.70;99.90;;;;;;5058466;28;20025;-81
2022/06/22 06:49:38;;;;;;;1999.90;999.90;;;18.80;99.90;;;;;;5055391;28;20040;-81
2022/06/22 06:52:12;;;;;;;1999.90;999.90;;;18.90;99.90;;;;;;5058076;28;20270;-80
2022/06/22 06:54:58;;;;;;;1999.90;999.90;;;18.90;99.90;;;;;;5057916;28;20027;-80
2022/06/22 06:57:24;;;;;;;1999.90;999.90;;;18.90;99.90;;;;;;5053814;28;20215;-80
2022/06/22 06:59:56;;;;;;;1999.90;999.90;;;19.00;99.90;;;;;;5054610;28;20032;-81
2022/06/22 07:02:28;;;;;;;1999.90;999.90;;;19.10;99.90;;;;;;5050252;28;20078;-81
2022/06/22 07:04:56;;;;;;;1999.90;999.90;;;19.00;99.90;;;;;;5050864;28;20492;-81
2022/06/22 07:07:52;;;;;;;1999.90;999.90;;;19.10;99.90;;;;;;5047834;28;20033;-81
2022/06/22 07:10:24;;;;;;;1999.90;999.90;;;18.90;99.90;;;;;;5053689;28;20422;-81
2022/06/22 07:13:01;;;;;;;1999.90;999.90;;;19.00;99.90;;;;;;5076662;28;20067;-81
2022/06/22 07:15:36;;;;;;;1999.90;999.90;;;19.10;99.90;;;;;;5060539;28;20645;-81
2022/06/22 07:18:18;;;;;;;1999.90;999.90;;;19.20;99.90;;;;;;5059285;28;20032;-81
2022/06/22 07:20:50;;;;;;;1999.90;999.90;;;19.30;99.90;;;;;;5054633;28;20074;-82
2022/06/22 07:23:40;;;;;;;1999.90;999.90;;;19.20;99.90;;;;;;5057466;28;20029;-80
2022/06/22 07:26:28;;;;;;;1999.90;999.90;;;18.90;99.90;;;;;;5056028;28;20037;-81
2022/06/22 07:29:23;;;;;;;1999.90;999.90;;;21.10;99.90;;;;;;5050865;28;20029;-80
2022/06/22 07:32:04;;;;;;;1999.90;999.90;;;22.10;99.90;;;;;;5051992;28;20025;-79
2022/06/22 07:34:48;;;;;;;1999.90;999.90;;;22.00;99.90;;;;;;5047800;28;20503;-80
2022/06/22 07:37:25;;;;;;;1999.90;999.90;;;22.00;99.90;;;;;;5041552;28;20034;-80
2022/06/22 07:40:04;;;;;;;1999.90;999.90;;;22.10;99.90;;;;;;5060577;28;20036;-80
2022/06/22 07:42:29;;;;;;;1999.90;999.90;;;22.20;99.90;;;;;;5063359;28;20040;-80
2022/06/22 07:44:55;;;;;;;1999.90;999.90;;;22.40;99.90;;;;;;5061988;28;20105;-80
2022/06/22 07:47:33;;;;;;;1999.90;999.90;;;22.60;99.90;;;;;;5056865;28;20029;-81
2022/06/22 07:50:18;;;;;;;1999.90;999.90;;;22.70;99.90;;;;;;5053139;28;20161;-80
2022/06/22 07:52:57;;;;;;;1999.90;999.90;;;22.60;99.90;;;;;;5052960;28;20016;-80
2022/06/22 07:55:45;;;;;;;1999.90;999.90;;;22.60;99.90;;;;;;5035491;28;20045;-82
2022/06/22 07:58:30;;;;;;;1999.90;999.90;;;22.70;99.90;;;;;;5065228;28;20043;-81
2022/06/22 08:01:19;;;;;;;1999.90;999.90;;;22.60;99.90;;;;;;5050197;28;20033;-80
2022/06/22 08:03:59;;;;;;;1999.90;999.90;;;22.90;99.90;;;;;;5048504;28;20099;-81
2022/06/22 08:06:50;;;;;;;1999.90;999.90;;;22.90;99.90;;;;;;5052723;28;20039;-80
2022/06/22 08:09:31;;;;;;;1999.90;999.90;;;22.80;99.90;;;;;;5070222;28;20492;-81
2022/06/22 08:11:57;;;;;;;1999.90;999.90;;;23.00;99.90;;;;;;5063381;28;20017;-82
2022/06/22 08:14:32;;;;;;;1999.90;999.90;;;22.80;99.90;;;;;;5062797;28;20058;-81
2022/06/22 08:17:01;;;;;;;1999.90;999.90;;;22.90;99.90;;;;;;5059871;28;20387;-81
2022/06/22 08:19:29;;;;;;;1999.90;999.90;;;23.00;99.90;;;;;;5053821;28;20098;-80
2022/06/22 08:21:59;;;;;;;1999.90;999.90;;;23.20;99.90;;;;;;5056556;28;20037;-81
2022/06/22 08:24:27;;;;;;;1999.90;999.90;;;23.40;99.90;;;;;;5055823;28;20120;-80
2022/06/22 08:26:55;;;;;;;1999.90;999.90;;;23.60;99.90;;;;;;5050561;28;20033;-81
2022/06/22 08:29:25;;;;;;;1999.90;999.90;;;23.50;99.90;;;;;;5044121;28;20037;-80
2022/06/22 08:32:16;;;;;;;1999.90;999.90;;;23.90;99.90;;;;;;5051502;28;20036;-80
2022/06/22 08:34:48;;;;;;;1999.90;999.90;;;23.80;99.90;;;;;;5057514;28;20041;-80
2022/06/22 08:37:38;;;;;;;1999.90;999.90;;;23.70;99.90;;;;;;5047407;28;20036;-81
2022/06/22 08:40:23;;;;;;;1999.90;999.90;;;23.60;99.90;;;;;;5085698;28;20028;-80
2022/06/22 08:43:27;;;;;;;1999.90;999.90;;;23.50;99.90;;;;;;5063890;28;20059;-81
2022/06/22 08:46:14;;;;;;;1999.90;999.90;;;23.20;99.90;;;;;;5043735;28;20782;-80
2022/06/22 08:48:45;;;;;;;1999.90;999.90;;;23.20;99.90;;;;;;5039878;28;20037;-81
2022/06/22 08:51:36;;;;;;;1999.90;999.90;;;23.10;99.90;;;;;;5051383;28;20040;-81
2022/06/22 08:54:21;;;;;;;;;;;23.40;99.90;;;;;;5064791;28;20126;-81
2022/06/22 08:57:11;;;;;;;1999.90;999.90;;;23.40;99.90;;;;;;5059490;28;19912;-82
2022/06/22 08:59:56;;;;;;;1999.90;999.90;;;22.90;99.90;;;;;;5055544;28;20028;-81
2022/06/22 09:02:35;;;;;;;1999.90;999.90;;;22.90;99.90;;;;;;5054401;28;20040;-81
2022/06/22 09:05:07;;;;;;;1999.90;999.90;;;22.80;99.90;;;;;;5054821;28;20067;-81
2022/06/22 09:07:54;;;;;;;1999.90;999.90;;;22.90;99.90;;;;;;5055580;28;20024;-81
2022/06/22 09:10:29;;;;;;;1999.90;999.90;;;23.10;99.90;;;;;;5068160;28;20439;-81
2022/06/22 09:13:15;;;;;;;1999.90;999.90;;;23.10;99.90;;;;;;5069878;28;20039;-80
2022/06/22 09:15:55;;;;;;;1999.90;999.90;;;23.30;99.90;;;;;;5068038;28;20024;-81
2022/06/22 09:18:35;;;;;;;1999.90;999.90;;;23.50;99.90;;;;;;5062771;28;20233;-81
2022/06/22 09:21:19;;;;;;;1999.90;999.90;;;23.50;99.90;;;;;;5060959;28;20059;-81
2022/06/22 09:24:11;;;;;;;1999.90;999.90;;;23.30;99.90;;;;;;5056321;28;20237;-81
2022/06/22 09:26:49;;;;;;;1999.90;999.90;;;23.00;99.90;;;;;;5058851;28;20032;-81
2022/06/22 09:29:34;;;;;;;1999.90;999.90;;;22.90;99.90;;;;;;5055035;28;20086;-81
2022/06/22 09:32:37;;;;;;;1999.90;999.90;;;22.80;99.90;;;;;;5054704;28;20055;-81
2022/06/22 09:35:19;;;;;;;1999.90;999.90;;;22.90;99.90;;;;;;5056040;28;20060;-83
2022/06/22 09:37:47;;;;;;;1999.90;999.90;;;22.80;99.90;;;;;;5052780;28;20068;-81
2022/06/22 09:40:34;;;;;;;1999.90;999.90;;;22.60;99.90;;;;;;5070741;28;20020;-81
2022/06/22 09:43:09;;;;;;;1999.90;999.90;;;22.40;99.90;;;;;;5061284;28;20033;-80
2022/06/22 09:45:59;;;;;;;1999.90;999.90;;;22.40;99.90;;;;;;5061411;28;20029;-81
2022/06/22 09:48:56;;;;;;;1999.90;999.90;;;22.40;99.90;;;;;;5060555;28;20043;-81
2022/06/22 09:51:59;;;;;;;1999.90;999.90;;;22.30;99.90;;;;;;5056992;28;20028;-81
2022/06/22 09:57:54;;;;;;;1999.90;999.90;;;22.40;99.90;;;;;;5056385;28;20071;-81
2022/06/22 10:00:25;;;;;;;1999.90;999.90;;;22.50;99.90;;;;;;5053388;28;20028;-81
2022/06/22 10:02:57;;;;;;;1999.90;999.90;;;22.10;99.90;;;;;;5050477;28;20280;-82
2022/06/22 10:05:57;;;;;;;1999.90;999.90;;;21.80;99.90;;;;;;5048909;28;20040;-81
2022/06/22 10:08:59;;;;;;;1999.90;999.90;;;22.00;99.90;;;;;;5065895;28;20025;-82
2022/06/22 10:11:48;;;;;;;1999.90;999.90;;;21.90;99.90;;;;;;5062296;28;20459;-82
2022/06/22 10:14:30;;;;;;;1999.90;999.90;;;21.80;99.90;;;;;;5045300;28;20044;-82
2022/06/22 10:17:22;;;;;;;1999.90;999.90;;;21.30;99.90;;;;;;5059608;28;20021;-82
2022/06/22 10:20:08;;;;;;;1999.90;999.90;;;21.70;99.90;;;;;;5067507;28;20021;-82
2022/06/22 10:22:54;;;;;;;1999.90;999.90;;;21.20;99.90;;;;;;5055677;28;20128;-82
2022/06/22 10:25:23;;;;;;;1999.90;999.90;;;21.20;99.90;;;;;;5055657;28;20035;-82
2022/06/22 10:28:22;;;;;;;1999.90;999.90;;;21.30;99.90;;;;;;5055617;28;20054;-82
2022/06/22 10:31:04;;;;;;;1999.90;999.90;;;21.20;99.90;;;;;;5054030;28;20351;-83
2022/06/22 10:33:44;;;;;;;1999.90;999.90;;;21.00;99.90;;;;;;5047978;28;20033;-82
2022/06/22 10:36:33;;;;;;;1999.90;999.90;;;20.60;99.90;;;;;;5047291;28;20037;-81
2022/06/22 10:39:01;;;;;;;1999.90;999.90;;;20.10;99.90;;;;;;5064015;28;20112;-82
2022/06/22 10:45:08;;;;;;;1999.90;999.90;;;20.10;99.90;;;;;;5056910;28;20043;-84
2022/06/22 10:47:44;;;;;;;1999.90;999.90;;;19.50;99.90;;;;;;5053032;28;20055;-85
2022/06/22 10:50:41;;;;;;;1999.90;999.90;;;19.80;99.90;;;;;;5068975;28;20035;-84
2022/06/22 10:53:48;;;;;;;1999.90;999.90;;;19.40;99.90;;;;;;5055112;28;20089;-84
2022/06/22 10:56:51;;;;;;;1999.90;999.90;;;19.20;99.90;;;;;;5041037;28;20254;-84
2022/06/22 11:00:03;;;;;;;1999.90;999.90;;;18.60;99.90;;;;;;5047770;28;20028;-88
2022/06/22 11:02:59;;;;;;;1999.90;999.90;;;18.30;99.90;;;;;;5047210;28;20036;-84
2022/06/22 11:05:25;;;;;;;1999.90;999.90;;;18.20;99.90;;;;;;5039042;28;20017;-84
2022/06/22 11:08:20;;;;;;;1999.90;999.90;;;17.90;99.90;;;;;;5045774;28;20395;-81
2022/06/22 11:10:48;;;;;;;1999.90;999.90;;;17.90;99.90;;;;;;5046142;28;20104;-82
2022/06/22 11:13:29;;;;;;;1999.90;999.90;;;17.90;99.90;;;;;;5045518;28;20483;-80
2022/06/22 11:16:17;;;;;;;;;;;18.20;99.90;;;;;;5055659;28;20055;-81
2022/06/22 11:19:34;;;;;;;1999.90;999.90;;;18.20;99.90;;;;;;5054919;28;19958;-80
2022/06/22 11:22:16;;;;;;;1999.90;999.90;;;18.20;99.90;;;;;;5042440;28;20044;-79
2022/06/22 11:30:48;;;;;;;1999.90;999.90;;;18.20;99.90;;;;;;5069866;28;20287;-81
2022/06/22 11:31:30;;;;;;;1999.90;999.90;;;18.20;99.90;;;;;;5037436;28;20083;-81
2022/06/22 11:34:17;;;;;;;1999.90;999.90;;;18.50;99.90;;;;;;5044649;28;20021;-78
2022/06/22 11:37:25;;;;;;;1999.90;999.90;;;18.20;99.90;;;;;;5046979;28;20055;-82
2022/06/22 11:40:22;;;;;;;1999.90;999.90;;;18.40;99.90;;;;;;5059204;28;20608;-80
2022/06/22 11:43:11;;;;;;;1999.90;999.90;;;18.50;99.90;;;;;;5057288;28;20035;-80
2022/06/22 11:45:51;;;;;;;1999.90;999.90;;;18.40;99.90;;;;;;5038631;28;20036;-80
2022/06/22 11:48:32;;;;;;;1999.90;999.90;;;18.60;99.90;;;;;;5067765;28;20122;-79
2022/06/22 11:51:33;;;;;;;1999.90;999.90;;;18.60;99.90;;;;;;5051908;28;20032;-79
2022/06/22 11:54:07;;;;;;;1999.90;999.90;;;18.90;99.90;;;;;;5051996;28;20033;-79
2022/06/22 11:57:00;;;;;;;1999.90;999.90;;;19.20;99.90;;;;;;5051287;28;20025;-79
2022/06/22 11:59:54;;;;;;;1999.90;999.90;;;19.50;99.90;;;;;;5037560;28;20053;-81
2022/06/22 12:02:38;;;;;;;1999.90;999.90;;;19.60;99.90;;;;;;5046886;28;20404;-79
2022/06/22 12:05:25;;;;;;;1999.90;999.90;;;19.60;99.90;;;;;;5050195;28;20455;-80
2022/06/22 12:08:09;;;;;;;1999.90;999.90;;;20.00;99.90;;;;;;5051326;28;21647;-82
2022/06/22 12:10:44;;;;;;;1999.90;999.90;;;20.50;99.90;;;;;;5058278;28;20124;-80
2022/06/22 12:13:18;;;;;;;1999.90;999.90;;;20.40;99.90;;;;;;5053844;28;20042;-83
2022/06/22 12:16:17;;;;;;;1999.90;999.90;;;20.20;99.90;;;;;;5061295;28;20060;-81
2022/06/22 12:19:07;;;;;;;1999.90;999.90;;;19.80;99.90;;;;;;5060062;28;20035;-80
2022/06/22 12:21:58;;;;;;;1999.90;999.90;;;19.70;99.90;;;;;;5054999;28;20029;-81
2022/06/22 12:24:38;;;;;;;1999.90;999.90;;;19.70;99.90;;;;;;5050214;28;20025;-82
2022/06/22 12:27:17;;;;;;;1999.90;999.90;;;19.70;99.90;;;;;;5049853;28;20032;-80
2022/06/22 12:29:45;;;;;;;1999.90;999.90;;;20.20;99.90;;;;;;5050079;28;20103;-82
2022/06/22 12:32:16;;;;;;;1999.90;999.90;;;20.40;99.90;;;;;;5052425;28;20044;-82
2022/06/22 12:35:11;;;;;;;1999.90;999.90;;;20.50;99.90;;;;;;5054951;28;20098;-82
2022/06/22 12:37:43;;;;;;;1999.90;999.90;;;20.50;99.90;;;;;;5061472;28;20039;-83
2022/06/22 12:40:09;;;;;;;1999.90;999.90;;;20.60;99.90;;;;;;5065441;28;20025;-82
2022/06/22 12:42:59;;;;;;;1999.90;999.90;;;20.90;99.90;;;;;;5054285;28;20044;-82
2022/06/22 12:45:28;;;;;;;1999.90;999.90;;;21.20;99.90;;;;;;5054644;28;20029;-81
2022/06/22 12:48:12;;;;;;;1999.90;999.90;;;21.40;99.90;;;;;;5060468;28;20491;-82
2022/06/22 12:51:04;;;;;;;1999.90;999.90;;;21.60;99.90;;;;;;5054921;28;20075;-84
2022/06/22 12:53:50;;;;;;;1999.90;999.90;;;21.70;99.90;;;;;;5066599;28;20041;-80
2022/06/22 12:56:47;;;;;;;1999.90;999.90;;;21.50;99.90;;;;;;5049034;28;20029;-83
2022/06/22 12:59:24;;;;;;;1999.90;999.90;;;21.40;99.90;;;;;;5047269;28;20032;-80
2022/06/22 13:01:50;;;;;;;1999.90;999.90;;;21.30;99.90;;;;;;5048433;28;20041;-80
2022/06/22 13:04:21;;;;;;;1999.90;999.90;;;21.40;99.90;;;;;;5052784;28;20057;-84
2022/06/22 13:06:54;;;;;;;1999.90;999.90;;;21.20;99.90;;;;;;5053369;28;20024;-87
2022/06/22 13:09:21;;;;;;;1999.90;999.90;;;21.50;99.90;;;;;;5054515;28;20048;-89
2022/06/22 13:11:49;;;;;;;1999.90;999.90;;;21.30;99.90;;;;;;5055046;28;20028;-87
2022/06/22 13:14:21;;;;;;;1999.90;999.90;;;21.50;99.90;;;;;;5037983;28;20031;-79
2022/06/22 13:17:19;;;;;;;1999.90;999.90;;;21.50;99.90;;;;;;5056133;28;20036;-85